Terminal Aerodrome Forecast
Issued by NWS

Home | Current Version | Previous Version | Graphics & Text | Print | Product List | Glossary On
Versions: 1 2 3 4 5 6 7 8 9 10 11 12 13 14 15 16 17 18 19 20
000
FTUS43 KUNR 251400 AAA
TAFGCC
TAF AMD
KGCC 251437Z 2515/2612 33016G26KT 2SM -SN BR BKN006 OVC012
      TEMPO 2515/2518 1/2SM -SN FG
     FM252100 36014KT P6SM -SHSN OVC015
     FM260300 02007KT P6SM OVC012=

USA.gov is the U.S. government's official web portal to all federal, state and local government web resources and services.